createdAt,value
2018-07-25T00:01:26.856Z,23.77
2018-07-25T00:03:54.972Z,23.73
2018-07-25T00:06:23.039Z,23.72
2018-07-25T00:08:51.355Z,23.72
2018-07-25T00:11:19.507Z,23.74
2018-07-25T00:13:47.816Z,23.73
2018-07-25T00:16:15.976Z,23.70
2018-07-25T00:18:44.162Z,23.69
2018-07-25T00:21:12.287Z,23.67
2018-07-25T00:23:40.343Z,23.64
2018-07-25T00:26:08.635Z,23.61
2018-07-25T00:28:36.728Z,23.60
2018-07-25T00:31:04.792Z,23.57
2018-07-25T00:33:32.840Z,23.49
2018-07-25T00:36:00.902Z,23.42
2018-07-25T00:38:28.940Z,23.22
2018-07-25T00:40:56.976Z,23.17
2018-07-25T00:43:25.127Z,23.11
2018-07-25T00:45:53.295Z,23.08
2018-07-25T00:48:21.523Z,23.06
2018-07-25T00:50:49.872Z,23.05
2018-07-25T00:53:18.127Z,23.04
2018-07-25T00:55:46.554Z,23.02
2018-07-25T00:58:15.048Z,23.00
2018-07-25T01:00:43.092Z,22.97
2018-07-25T01:03:11.137Z,22.91
2018-07-25T01:05:39.178Z,22.91
2018-07-25T01:08:07.231Z,22.92
2018-07-25T01:10:38.873Z,22.92
2018-07-25T01:13:06.915Z,22.91
2018-07-25T01:15:34.971Z,22.91
2018-07-25T01:18:03.031Z,22.91
2018-07-25T01:20:31.089Z,22.88
2018-07-25T01:22:59.131Z,22.84
2018-07-25T01:25:27.184Z,22.76
2018-07-25T01:27:55.239Z,22.72
2018-07-25T01:30:23.258Z,22.75
2018-07-25T01:32:51.639Z,22.77
2018-07-25T01:35:19.654Z,22.81
2018-07-25T01:37:47.775Z,22.85
2018-07-25T01:40:15.972Z,22.85
2018-07-25T01:42:44.252Z,22.85
2018-07-25T01:45:12.287Z,22.86
2018-07-25T01:47:40.324Z,22.87
2018-07-25T01:50:08.559Z,22.89
2018-07-25T01:52:36.591Z,22.92
2018-07-25T01:55:05.822Z,22.91
2018-07-25T01:57:33.900Z,22.84
2018-07-25T02:00:01.937Z,22.73
2018-07-25T02:02:29.964Z,22.69
2018-07-25T02:04:58.284Z,22.68
2018-07-25T02:07:26.339Z,22.66
2018-07-25T02:09:54.655Z,22.62
2018-07-25T02:12:22.703Z,22.59
2018-07-25T02:14:50.822Z,22.53
2018-07-25T02:17:18.989Z,22.50
2018-07-25T02:19:47.382Z,22.47
2018-07-25T02:22:15.713Z,22.45
2018-07-25T02:24:43.950Z,22.45
2018-07-25T02:27:12.091Z,22.45
2018-07-25T02:29:40.283Z,22.45
2018-07-25T02:32:08.372Z,22.47
2018-07-25T02:34:36.415Z,22.48
2018-07-25T02:37:04.460Z,22.51
2018-07-25T02:39:32.501Z,22.51
2018-07-25T02:42:00.539Z,22.52
2018-07-25T02:44:28.579Z,22.51
2018-07-25T02:46:56.635Z,22.52
2018-07-25T02:49:24.896Z,22.50
2018-07-25T02:51:53.024Z,22.47
2018-07-25T02:54:21.143Z,22.45
2018-07-25T02:56:49.378Z,22.42
2018-07-25T02:59:17.604Z,22.33
2018-07-25T03:01:46.003Z,22.25
2018-07-25T03:04:14.355Z,22.16
2018-07-25T03:06:42.878Z,21.92
2018-07-25T03:09:11.227Z,21.77
2018-07-25T03:11:39.540Z,21.74
2018-07-25T03:14:07.641Z,21.79
2018-07-25T03:16:35.717Z,21.84
2018-07-25T03:19:03.720Z,21.82
2018-07-25T03:21:31.750Z,21.77
2018-07-25T03:23:59.775Z,21.72
2018-07-25T03:26:27.819Z,21.72
2018-07-25T03:28:55.940Z,21.73
2018-07-25T03:31:24.105Z,21.78
2018-07-25T03:33:52.295Z,21.78
2018-07-25T03:36:20.671Z,21.80
2018-07-25T03:38:48.831Z,21.82
2018-07-25T03:41:17.115Z,21.83
2018-07-25T03:43:45.413Z,21.88
2018-07-25T03:46:13.617Z,21.91
2018-07-25T03:48:41.850Z,21.94
2018-07-25T03:51:09.959Z,21.94
2018-07-25T03:53:38.033Z,21.87
2018-07-25T03:56:06.376Z,21.87
2018-07-25T03:58:34.411Z,21.85
2018-07-25T04:01:02.440Z,21.86
2018-07-25T04:03:30.476Z,21.84
2018-07-25T04:05:58.520Z,21.92
2018-07-25T04:08:26.567Z,21.93
2018-07-25T04:10:54.615Z,21.95
2018-07-25T04:13:22.643Z,22.02
2018-07-25T04:15:50.667Z,22.11
2018-07-25T04:18:18.763Z,22.14
2018-07-25T04:20:46.827Z,22.22
2018-07-25T04:23:14.883Z,22.32
2018-07-25T04:25:43.207Z,22.35
2018-07-25T04:28:11.239Z,22.44
2018-07-25T04:30:39.323Z,22.48
2018-07-25T04:33:07.355Z,22.53
2018-07-25T04:35:35.393Z,22.61
2018-07-25T04:38:03.410Z,22.73
2018-07-25T04:40:31.427Z,22.89
2018-07-25T04:42:59.780Z,23.33
2018-07-25T04:45:27.828Z,24.15
2018-07-25T04:47:55.939Z,24.86
2018-07-25T04:50:24.137Z,25.60
2018-07-25T04:52:52.270Z,26.40
2018-07-25T04:55:20.479Z,27.12
2018-07-25T04:57:48.707Z,27.65
2018-07-25T05:00:17.046Z,27.68
2018-07-25T05:02:45.640Z,27.51
2018-07-25T05:05:13.823Z,27.31
2018-07-25T05:07:42.037Z,27.13
2018-07-25T05:10:10.244Z,26.99
2018-07-25T05:12:38.486Z,26.91
2018-07-25T05:15:07.441Z,26.84
2018-07-25T05:17:35.507Z,27.09
2018-07-25T05:20:03.535Z,27.34
2018-07-25T05:22:31.579Z,27.33
2018-07-25T05:24:59.668Z,27.40
2018-07-25T05:27:27.767Z,27.41
2018-07-25T05:29:56.013Z,27.42
2018-07-25T05:32:24.188Z,27.35
2018-07-25T05:34:52.240Z,27.30
2018-07-25T05:37:20.267Z,27.42
2018-07-25T05:39:48.335Z,27.56
2018-07-25T05:42:16.369Z,27.64
2018-07-25T05:44:44.411Z,27.84
2018-07-25T05:47:12.446Z,28.45
2018-07-25T05:49:40.507Z,28.82
2018-07-25T05:52:08.536Z,29.14
2018-07-25T05:54:36.590Z,29.44
2018-07-25T05:57:04.640Z,29.62
2018-07-25T05:59:32.671Z,29.68
2018-07-25T06:02:00.759Z,30.13
2018-07-25T06:04:28.795Z,30.86
2018-07-25T06:06:56.890Z,31.69
2018-07-25T06:09:25.088Z,32.41
2018-07-25T06:11:53.194Z,33.09
2018-07-25T06:14:21.376Z,33.75
2018-07-25T06:16:49.460Z,34.32
2018-07-25T06:19:17.704Z,34.87
2018-07-25T06:21:45.746Z,35.34
2018-07-25T06:24:14.051Z,35.80
2018-07-25T06:26:42.183Z,36.08
2018-07-25T06:29:10.258Z,36.45
2018-07-25T06:31:38.395Z,36.74
2018-07-25T06:34:06.667Z,36.52
2018-07-25T06:36:34.675Z,36.43
2018-07-25T06:39:02.710Z,36.45
2018-07-25T06:41:30.752Z,36.25
2018-07-25T06:43:58.799Z,36.17
2018-07-25T06:46:26.868Z,36.07
2018-07-25T06:48:54.923Z,36.28
2018-07-25T06:51:22.977Z,36.45
2018-07-25T06:53:51.034Z,36.52
2018-07-25T06:56:19.080Z,36.88
2018-07-25T06:58:47.143Z,37.14
2018-07-25T07:01:15.191Z,37.20
2018-07-25T07:03:43.219Z,37.47
2018-07-25T07:06:11.291Z,37.54
2018-07-25T07:08:39.377Z,37.56
2018-07-25T07:11:07.408Z,37.83
2018-07-25T07:13:35.451Z,38.06
2018-07-25T07:16:03.499Z,38.15
2018-07-25T07:18:31.607Z,38.32
2018-07-25T07:20:59.657Z,38.30
2018-07-25T07:23:27.699Z,38.41
2018-07-25T07:25:55.828Z,38.47
2018-07-25T07:28:23.827Z,38.15
2018-07-25T07:30:51.981Z,38.34
2018-07-25T07:33:20.008Z,38.36
2018-07-25T07:35:48.079Z,38.57
2018-07-25T07:38:16.107Z,38.82
2018-07-25T07:40:44.154Z,38.78
2018-07-25T07:43:12.203Z,38.83
2018-07-25T07:45:40.288Z,39.09
2018-07-25T07:48:08.312Z,39.18
2018-07-25T07:50:36.339Z,39.35
2018-07-25T07:53:04.406Z,39.48
2018-07-25T07:55:32.421Z,39.55
2018-07-25T07:58:00.483Z,39.42
2018-07-25T08:00:28.531Z,39.41
2018-07-25T08:02:56.564Z,39.15
2018-07-25T08:05:24.595Z,39.32
2018-07-25T08:07:52.641Z,39.40
2018-07-25T08:10:20.716Z,39.40
2018-07-25T08:12:48.746Z,39.09
2018-07-25T08:15:16.820Z,38.95
2018-07-25T08:17:44.939Z,38.99
2018-07-25T08:20:12.957Z,39.21
2018-07-25T08:22:41.027Z,39.44
2018-07-25T08:25:09.166Z,39.53
2018-07-25T08:27:37.302Z,39.67
2018-07-25T08:30:05.792Z,39.46
2018-07-25T08:32:33.865Z,39.46
2018-07-25T08:35:01.900Z,39.56
2018-07-25T08:37:30.019Z,39.62
2018-07-25T08:39:58.073Z,39.42
2018-07-25T08:42:26.308Z,39.35
2018-07-25T08:44:54.493Z,39.32
2018-07-25T08:47:23.559Z,39.22
2018-07-25T08:49:51.723Z,39.36
2018-07-25T08:52:19.863Z,39.45
2018-07-25T08:54:48.165Z,39.31
2018-07-25T08:57:16.618Z,39.32
2018-07-25T08:59:44.966Z,39.09
2018-07-25T09:02:13.159Z,38.92
2018-07-25T09:04:41.238Z,38.84
2018-07-25T09:07:09.267Z,38.76
2018-07-25T09:09:37.351Z,38.80
2018-07-25T09:12:05.367Z,38.65
2018-07-25T09:14:33.411Z,38.46
2018-07-25T09:17:01.450Z,38.64
2018-07-25T09:19:29.501Z,38.69
2018-07-25T09:21:57.560Z,38.57
2018-07-25T09:24:25.586Z,38.82
2018-07-25T09:26:53.668Z,39.11
2018-07-25T09:29:21.757Z,39.48
2018-07-25T09:31:49.817Z,39.86
2018-07-25T09:34:17.978Z,40.14
2018-07-25T09:36:46.084Z,40.09
2018-07-25T09:39:14.347Z,40.00
2018-07-25T09:41:42.501Z,40.24
2018-07-25T09:44:10.621Z,40.43
2018-07-25T09:46:38.788Z,40.78
2018-07-25T09:49:06.840Z,40.70
2018-07-25T09:51:34.940Z,40.47
2018-07-25T09:54:02.975Z,40.08
2018-07-25T09:56:31.045Z,40.33
2018-07-25T09:58:59.191Z,40.42
2018-07-25T10:01:27.147Z,40.43
2018-07-25T10:03:55.223Z,40.35
2018-07-25T10:06:23.254Z,40.22
2018-07-25T10:08:51.279Z,39.87
2018-07-25T10:11:19.342Z,39.21
2018-07-25T10:13:47.383Z,38.73
2018-07-25T10:16:15.431Z,38.29
2018-07-25T10:18:43.473Z,37.91
2018-07-25T10:21:11.528Z,37.75
2018-07-25T10:23:39.584Z,37.55
2018-07-25T10:26:07.630Z,37.41
2018-07-25T10:28:35.708Z,37.25
2018-07-25T10:31:03.801Z,37.22
2018-07-25T10:33:31.889Z,37.16
2018-07-25T10:35:59.922Z,37.09
2018-07-25T10:38:28.148Z,37.01
2018-07-25T10:40:56.256Z,37.01
2018-07-25T10:43:24.508Z,36.90
2018-07-25T10:45:52.769Z,36.91
2018-07-25T10:48:20.843Z,36.99
2018-07-25T10:50:49.115Z,37.05
2018-07-25T10:53:17.473Z,36.99
2018-07-25T10:55:45.600Z,36.94
2018-07-25T10:58:13.867Z,36.88
2018-07-25T11:00:41.946Z,36.83
2018-07-25T11:03:10.138Z,36.76
2018-07-25T11:05:38.179Z,36.54
2018-07-25T11:08:06.236Z,36.50
2018-07-25T11:10:34.265Z,36.22
2018-07-25T11:13:02.321Z,35.98
2018-07-25T11:15:30.405Z,35.79
2018-07-25T11:17:58.455Z,35.71
2018-07-25T11:20:26.475Z,35.52
2018-07-25T11:22:54.802Z,35.58
2018-07-25T11:25:22.864Z,35.71
2018-07-25T11:27:51.331Z,35.73
2018-07-25T11:30:19.980Z,35.60
2018-07-25T11:32:48.262Z,35.69
2018-07-25T11:35:16.311Z,35.88
2018-07-25T11:37:44.456Z,35.92
2018-07-25T11:40:12.501Z,36.06
2018-07-25T11:42:40.656Z,36.08
2018-07-25T11:45:08.707Z,36.09
2018-07-25T11:47:36.737Z,36.13
2018-07-25T11:50:04.827Z,36.22
2018-07-25T11:52:32.820Z,36.37
2018-07-25T11:55:00.916Z,36.39
2018-07-25T11:57:28.963Z,36.45
2018-07-25T11:59:56.980Z,36.51
2018-07-25T12:02:25.022Z,36.51
2018-07-25T12:04:53.315Z,36.43
2018-07-25T12:07:21.388Z,36.47
2018-07-25T12:09:49.372Z,36.38
2018-07-25T12:12:17.439Z,36.35
2018-07-25T12:14:45.472Z,36.37
2018-07-25T12:17:13.522Z,36.34
2018-07-25T12:19:41.551Z,36.36
2018-07-25T12:22:09.587Z,36.35
2018-07-25T12:24:37.652Z,36.22
2018-07-25T12:27:05.731Z,36.18
2018-07-25T12:29:33.787Z,36.08
2018-07-25T12:32:01.811Z,35.92
2018-07-25T12:34:29.933Z,36.05
2018-07-25T12:36:57.968Z,35.96
2018-07-25T12:39:26.112Z,35.90
2018-07-25T12:41:54.268Z,35.83
2018-07-25T12:44:22.435Z,35.96
2018-07-25T12:46:51.267Z,35.68
2018-07-25T12:49:19.328Z,35.82
2018-07-25T12:51:47.346Z,35.94
2018-07-25T12:54:15.436Z,36.02
2018-07-25T12:56:43.408Z,36.00
2018-07-25T12:59:11.438Z,35.94
2018-07-25T13:01:39.492Z,35.96
2018-07-25T13:04:07.549Z,36.00
2018-07-25T13:06:35.575Z,35.97
2018-07-25T13:09:05.884Z,36.06
2018-07-25T13:11:33.924Z,36.17
2018-07-25T13:14:02.007Z,36.28
2018-07-25T13:16:30.048Z,36.28
2018-07-25T13:18:58.062Z,36.25
2018-07-25T13:21:26.100Z,36.36
2018-07-25T13:23:54.219Z,36.34
2018-07-25T13:26:22.315Z,36.42
2018-07-25T13:28:50.457Z,36.45
2018-07-25T13:31:19.094Z,36.52
2018-07-25T13:33:47.368Z,36.57
2018-07-25T13:36:15.493Z,36.62
2018-07-25T13:38:43.555Z,36.71
2018-07-25T13:41:11.624Z,36.73
2018-07-25T13:43:39.684Z,36.81
2018-07-25T13:46:07.836Z,36.76
2018-07-25T13:48:35.839Z,36.86
2018-07-25T13:51:03.906Z,36.86
2018-07-25T13:53:31.967Z,36.69
2018-07-25T13:56:00.020Z,36.69
2018-07-25T13:58:28.072Z,36.66
2018-07-25T14:00:56.199Z,36.64
2018-07-25T14:03:24.263Z,36.76
2018-07-25T14:05:52.348Z,36.68
2018-07-25T14:08:20.403Z,36.68
2018-07-25T14:10:48.611Z,36.66
2018-07-25T14:13:16.632Z,36.52
2018-07-25T14:15:44.683Z,36.58
2018-07-25T14:18:12.939Z,36.54
2018-07-25T14:20:40.946Z,36.37
2018-07-25T14:23:09.011Z,36.41
2018-07-25T14:25:37.039Z,36.46
2018-07-25T14:28:05.116Z,36.61
2018-07-25T14:30:33.234Z,36.55
2018-07-25T14:33:01.204Z,36.57
2018-07-25T14:35:29.253Z,36.53
2018-07-25T14:37:57.310Z,36.51
2018-07-25T14:40:25.423Z,36.54
2018-07-25T14:42:53.444Z,36.51
2018-07-25T14:45:21.503Z,36.38
2018-07-25T14:47:49.552Z,36.24
2018-07-25T14:50:17.671Z,36.26
2018-07-25T14:52:45.748Z,36.11
2018-07-25T14:55:13.832Z,36.10
2018-07-25T14:57:41.891Z,35.98
2018-07-25T15:00:10.073Z,35.92
2018-07-25T15:02:38.216Z,35.93
2018-07-25T15:05:06.210Z,35.91
2018-07-25T15:07:34.271Z,35.77
2018-07-25T15:10:02.307Z,35.60
2018-07-25T15:12:35.886Z,35.53
2018-07-25T15:15:04.525Z,35.36
2018-07-25T15:17:32.614Z,35.25
2018-07-25T15:20:00.758Z,35.20
2018-07-25T15:22:28.920Z,35.14
2018-07-25T15:24:57.302Z,35.12
2018-07-25T15:27:25.417Z,35.13
2018-07-25T15:29:53.454Z,35.13
2018-07-25T15:32:21.536Z,35.12
2018-07-25T15:34:49.566Z,35.19
2018-07-25T15:37:17.604Z,35.25
2018-07-25T15:39:45.633Z,35.32
2018-07-25T15:42:13.691Z,35.37
2018-07-25T15:44:41.752Z,35.40
2018-07-25T15:47:09.775Z,35.48
2018-07-25T15:49:37.828Z,35.38
2018-07-25T15:52:05.887Z,35.41
2018-07-25T15:54:33.944Z,35.36
2018-07-25T15:57:01.983Z,35.41
2018-07-25T15:59:29.998Z,35.41
2018-07-25T16:01:58.056Z,35.33
2018-07-25T16:04:26.120Z,35.35
2018-07-25T16:06:54.628Z,35.29
2018-07-25T16:09:22.687Z,35.24
2018-07-25T16:11:50.747Z,35.27
2018-07-25T16:14:19.610Z,35.27
2018-07-25T16:16:48.309Z,35.26
2018-07-25T16:19:16.529Z,35.33
2018-07-25T16:21:45.155Z,35.36
2018-07-25T16:24:13.332Z,35.36
2018-07-25T16:26:41.403Z,35.30
2018-07-25T16:29:09.546Z,35.31
2018-07-25T16:31:37.605Z,35.30
2018-07-25T16:34:05.663Z,35.29
2018-07-25T16:36:33.707Z,35.24
2018-07-25T16:39:01.730Z,35.29
2018-07-25T16:41:29.760Z,35.36
2018-07-25T16:43:57.794Z,35.39
2018-07-25T16:46:25.896Z,35.47
2018-07-25T16:48:54.056Z,35.50
2018-07-25T16:51:22.191Z,35.43
2018-07-25T16:53:50.271Z,35.30
2018-07-25T16:56:18.472Z,35.18
2018-07-25T17:01:21.061Z,35.02
2018-07-25T17:03:49.363Z,34.94
2018-07-25T17:06:17.553Z,35.04
2018-07-25T17:08:45.589Z,35.08
2018-07-25T17:11:13.622Z,35.14
2018-07-25T17:13:41.695Z,35.18
2018-07-25T17:16:09.995Z,35.21
2018-07-25T17:18:38.047Z,35.21
2018-07-25T17:21:07.007Z,35.13
2018-07-25T17:23:41.824Z,34.92
2018-07-25T17:26:10.127Z,34.25
2018-07-25T17:28:38.163Z,33.97
2018-07-25T17:31:06.395Z,33.62
2018-07-25T17:33:34.627Z,33.13
2018-07-25T17:36:02.677Z,33.15
2018-07-25T17:38:30.760Z,32.50
2018-07-25T17:40:58.830Z,32.42
2018-07-25T17:43:26.816Z,32.27
2018-07-25T17:45:54.847Z,32.18
2018-07-25T17:48:23.007Z,32.02
2018-07-25T17:50:51.042Z,32.01
2018-07-25T17:53:19.068Z,31.86
2018-07-25T17:55:47.130Z,31.77
2018-07-25T17:58:15.126Z,31.52
2018-07-25T18:00:43.159Z,31.33
2018-07-25T18:03:11.213Z,31.16
2018-07-25T18:05:39.247Z,31.24
2018-07-25T18:08:07.304Z,31.21
2018-07-25T18:10:35.511Z,30.99
2018-07-25T18:13:08.936Z,30.78
2018-07-25T18:15:36.971Z,30.58
2018-07-25T18:18:05.007Z,30.39
2018-07-25T18:20:33.059Z,30.32
2018-07-25T18:23:01.198Z,30.18
2018-07-25T18:25:29.211Z,30.15
2018-07-25T18:27:57.227Z,29.82
2018-07-25T18:30:25.284Z,29.81
2018-07-25T18:32:53.325Z,29.68
2018-07-25T18:35:21.339Z,29.39
2018-07-25T18:37:49.366Z,29.20
2018-07-25T18:40:17.374Z,28.88
2018-07-25T18:42:45.640Z,28.68
2018-07-25T18:45:13.727Z,28.54
2018-07-25T18:47:41.782Z,28.39
2018-07-25T18:50:10.728Z,28.28
2018-07-25T18:52:38.778Z,28.39
2018-07-25T18:55:06.824Z,28.27
2018-07-25T18:57:34.880Z,28.23
2018-07-25T19:00:02.963Z,28.29
2018-07-25T19:02:31.071Z,28.09
2018-07-25T19:04:59.097Z,28.13
2018-07-25T19:07:27.211Z,28.02
2018-07-25T19:09:55.382Z,27.99
2018-07-25T19:12:23.615Z,27.85
2018-07-25T19:14:57.122Z,27.81
2018-07-25T19:17:25.179Z,27.57
2018-07-25T19:19:53.190Z,27.57
2018-07-25T19:22:21.456Z,27.64
2018-07-25T19:24:49.519Z,27.61
2018-07-25T19:27:17.547Z,27.64
2018-07-25T19:29:45.583Z,27.63
2018-07-25T19:32:13.636Z,27.49
2018-07-25T19:34:41.679Z,27.54
2018-07-25T19:37:09.832Z,27.46
2018-07-25T19:39:38.876Z,27.44
2018-07-25T19:42:08.736Z,27.35
2018-07-25T19:44:37.534Z,27.36
2018-07-25T19:47:06.295Z,27.37
2018-07-25T19:49:35.162Z,27.31
2018-07-25T19:52:03.621Z,27.11
2018-07-25T19:54:31.738Z,27.11
2018-07-25T19:56:59.863Z,27.06
2018-07-25T19:59:27.934Z,27.01
2018-07-25T20:01:56.575Z,26.95
2018-07-25T20:04:24.696Z,27.04
2018-07-25T20:06:52.786Z,27.08
2018-07-25T20:09:20.940Z,27.05
2018-07-25T20:11:49.171Z,26.99
2018-07-25T20:14:22.709Z,26.98
2018-07-25T20:16:50.775Z,27.04
2018-07-25T20:19:18.877Z,27.03
2018-07-25T20:21:46.933Z,27.06
2018-07-25T20:24:15.306Z,27.08
2018-07-25T20:26:43.270Z,27.10
2018-07-25T20:29:11.332Z,27.09
2018-07-25T20:31:39.641Z,27.09
2018-07-25T20:34:07.716Z,27.08
2018-07-25T20:36:35.773Z,27.06
2018-07-25T20:39:06.175Z,27.02
2018-07-25T20:41:34.228Z,26.99
2018-07-25T20:44:02.295Z,26.98
2018-07-25T20:46:30.332Z,26.99
2018-07-25T20:48:58.420Z,27.00
2018-07-25T20:51:26.451Z,26.99
2018-07-25T20:53:54.516Z,27.01
2018-07-25T20:56:22.564Z,27.01
2018-07-25T20:58:50.620Z,27.04
2018-07-25T21:01:18.646Z,27.03
2018-07-25T21:03:46.675Z,27.05
2018-07-25T21:06:15.748Z,27.02
2018-07-25T21:08:43.847Z,27.08
2018-07-25T21:11:12.217Z,27.06
2018-07-25T21:13:40.243Z,27.06
2018-07-25T21:16:08.386Z,27.09
2018-07-25T21:18:36.448Z,27.06
2018-07-25T21:21:04.478Z,26.97
2018-07-25T21:23:32.531Z,26.89
2018-07-25T21:26:00.593Z,26.76
2018-07-25T21:28:29.023Z,26.70
2018-07-25T21:30:57.060Z,26.68
2018-07-25T21:33:25.131Z,26.61
2018-07-25T21:35:53.168Z,26.61
2018-07-25T21:38:21.243Z,26.64
2018-07-25T21:40:49.299Z,26.66
2018-07-25T21:43:17.319Z,26.68
2018-07-25T21:45:45.491Z,26.72
2018-07-25T21:48:13.547Z,26.76
2018-07-25T21:50:41.848Z,26.79
2018-07-25T21:53:09.892Z,26.80
2018-07-25T21:55:37.945Z,26.82
2018-07-25T21:58:06.007Z,26.84
2018-07-25T22:00:34.076Z,26.83
2018-07-25T22:03:02.156Z,26.80
2018-07-25T22:05:30.204Z,26.82
2018-07-25T22:07:58.272Z,26.80
2018-07-25T22:10:27.008Z,26.81
2018-07-25T22:12:55.805Z,26.81
2018-07-25T22:15:24.330Z,26.80
2018-07-25T22:17:52.580Z,26.79
2018-07-25T22:20:20.740Z,26.77
2018-07-25T22:22:49.088Z,26.76
2018-07-25T22:25:17.924Z,26.76
2018-07-25T22:27:46.259Z,26.73
2018-07-25T22:30:14.480Z,26.73
2018-07-25T22:32:42.650Z,26.73
2018-07-25T22:35:10.793Z,26.72
2018-07-25T22:37:38.891Z,26.73
2018-07-25T22:40:06.961Z,26.75
2018-07-25T22:42:35.047Z,26.77
2018-07-25T22:45:03.099Z,26.73
2018-07-25T22:47:31.139Z,26.73
2018-07-25T22:49:59.196Z,26.73
2018-07-25T22:52:27.366Z,26.66
2018-07-25T22:54:55.596Z,26.60
2018-07-25T22:57:23.799Z,26.55
2018-07-25T22:59:52.285Z,26.52
2018-07-25T23:02:20.552Z,26.49
2018-07-25T23:04:48.730Z,26.48
2018-07-25T23:07:17.297Z,26.46
2018-07-25T23:09:45.911Z,26.40
2018-07-25T23:12:14.699Z,26.37
2018-07-25T23:14:43.127Z,26.33
2018-07-25T23:17:11.420Z,26.31
2018-07-25T23:19:39.589Z,26.29
2018-07-25T23:22:07.668Z,26.29
2018-07-25T23:24:35.699Z,26.28
2018-07-25T23:27:03.732Z,26.29
2018-07-25T23:29:31.846Z,26.30
2018-07-25T23:31:59.908Z,26.33
2018-07-25T23:34:28.039Z,26.32
2018-07-25T23:36:56.321Z,26.30
2018-07-25T23:39:24.668Z,26.30
2018-07-25T23:41:53.063Z,26.30
2018-07-25T23:44:21.453Z,26.31
2018-07-25T23:46:49.766Z,26.31
2018-07-25T23:49:17.916Z,26.30
2018-07-25T23:51:46.170Z,26.30
2018-07-25T23:54:14.549Z,26.28
2018-07-25T23:56:42.742Z,26.26
2018-07-25T23:59:10.792Z,26.28
